This demonstration page uses our WeatherBlox Daily Observations layout. Learn more.

Left ArrowRight Arrow

41.55636, -103.73856

Hourly Observations for January 15, 2021

Temp ( °F °C ) Dew Point ( °F °C ) Humidity (%) Winds ( mph kmh ) Pressure ( in mb ) Visibility ( mi km ) Precip ( " mm )
12:58 am 00:58 Clear 24 -4.5 4 -15.4 43 43 NW 33 54 30.36 1028 10 16.0934 0 0
1:58 am 01:58 Clear 22 -5.7 6 -14.4 51 51 NW 26 43 30.38 1029 10 16.0934 0 0
2:58 am 02:58 Clear 22 -5.6 4 -15.4 46 46 NW 26 43 30.29 1026 10 16.0934 0 0
3:58 am 03:58 Clear 21 -6 5 -15.1 49 49 NW 29 46 30.27 1025 10 16.0934 0 0
4:58 am 04:58 Clear 21 -6 5 -14.8 50 50 NW 26 43 30.29 1026 10 16.0934 0 0
5:56 am 05:56 Clear 22 -5.6 5 -14.9 48 48 NW 33 54 30.28 1025 10 16.0934 0 0
6:56 am 06:56 Clear 21 -5.9 6 -14.6 51 51 NW 29 46 30.3 1026 10 16.0934 0 0
7:58 am 07:58 Sunny 22 -5.5 6 -14.4 50 50 NW 26 43 30.3 1026 10 16.0934 0 0
8:58 am 08:58 Sunny 25 -4 7 -14.1 46 46 NW 30 48 30.3 1026 10 16.0934 0 0
9:58 am 09:58 Sunny 28 -2.2 6 -14.2 40 40 NNW 35 56 30.29 1026 10 16.0934 0 0
10:58 am 10:58 Sunny 30 -1 4 -15.5 33 33 NNW 40 65 30.25 1025 10 16.0934 0 0
11:58 am 11:58 Sunny 33 0.5 1 -17.1 26 26 NNW 37 59 30.22 1023 10 16.0934 0 0
12:58 pm 12:58 Sunny 35 1.8 -1 -18.4 21 21 NW 37 59 30.19 1022 10 16.0934 0 0
1:58 pm 13:58 Sunny 36 2.2 -5 -20.6 17 17 NNW 25 41 30.2 1023 10 16.0934 0 0
2:58 pm 14:58 Sunny 37 2.9 -6 -21.2 15 15 NNW 23 37 30.19 1022 10 16.0934 0 0
3:58 pm 15:58 Sunny 38 3.4 0 -17.7 20 20 NNW 24 39 30.19 1022 10 16.0934 0 0
4:58 pm 16:58 Mostly Clear 36 2.2 7 -14.1 29 29 N 20 31 30.2 1023 10 16.0934 0 0
5:58 pm 17:58 Mostly Clear 33 0.3 8 -13.5 35 35 NW 6 9 30.21 1023 10 16.0934 0 0
6:58 pm 18:58 Mostly Cloudy 25 -3.7 8 -13.1 48 48 W 9 15 30.21 1023 10 16.0934 0 0
7:58 pm 19:58 Clear 23 -4.9 9 -12.9 54 54 SW 7 11 30.16 1022 10 16.0934 0 0
8:58 pm 20:58 Clear 23 -4.9 10 -12.2 57 57 WSW 7 11 30.15 1021 10 16.0934 0 0
9:58 pm 21:58 Mostly Cloudy 26 -3.2 15 -9.7 61 61 SW 7 11 30.12 1020 10 16.0934 0 0
10:58 pm 22:58 Mostly Cloudy 29 -1.4 17 -8.5 59 59 W 10 17 30.08 1019 10 16.0934 0 0
11:58 pm 23:58 Mostly Cloudy 30 -0.9 19 -7.5 61 61 W 9 15 30.04 1017 10 16.0934 0 0

Powered by AerisWeather